Time;durP1;ratioP1;P1;durP2;ratioP2;P2;SDS_P1;SDS_P2;PMS_P1;PMS_P2;Temp;Humidity;BMP_temperature;BMP_pressure;BME280_temperature;BME280_humidity;BME280_pressure;Samples;Min_cycle;Max_cycle;Signal;HPM_P1;HPM_P2
2022/06/11 00:03:30;;;;;;;7.43;3.67;;;;;;;10.62;100.00;97245.81;10373159;28;20193;-55
2022/06/11 00:08:30;;;;;;;4.10;3.27;;;;;;;10.64;100.00;97246.53;10374083;28;20249;-56
2022/06/11 00:13:31;;;;;;;4.10;3.50;;;;;;;10.60;100.00;97247.78;10373923;28;20217;-59
2022/06/11 00:18:33;;;;;;;5.00;3.90;;;;;;;10.56;100.00;97243.78;10372896;28;20703;-59
2022/06/11 00:23:34;;;;;;;6.33;3.47;;;;;;;10.48;100.00;97249.75;10372804;28;20255;-58
2022/06/11 00:28:35;;;;;;;7.10;3.93;;;;;;;10.45;100.00;97236.09;10373342;28;20259;-57
2022/06/11 00:33:36;;;;;;;5.30;3.47;;;;;;;10.42;100.00;97246.88;10373395;28;20193;-56
2022/06/11 00:38:38;;;;;;;5.50;3.37;;;;;;;10.38;100.00;97235.03;10372723;28;20232;-55
2022/06/11 00:43:39;;;;;;;5.93;3.97;;;;;;;10.25;100.00;97230.88;10373031;28;20216;-55
2022/06/11 00:48:40;;;;;;;5.97;3.27;;;;;;;10.21;100.00;97220.84;10372585;28;20214;-52
2022/06/11 00:53:46;;;;;;;7.40;3.70;;;;;;;10.17;100.00;97223.75;10372531;28;20628;-51
2022/06/11 00:58:47;;;;;;;4.23;3.20;;;;;;;10.13;100.00;97224.16;10370731;28;20225;-56
2022/06/11 01:03:51;;;;;;;4.73;3.43;;;;;;;10.23;100.00;97224.97;10371600;28;20196;-59
2022/06/11 01:09:29;;;;;;;6.80;3.53;;;;;;;10.23;100.00;97216.28;10343991;23;20242;-55
2022/06/11 01:14:45;;;;;;;4.40;3.33;;;;;;;10.10;100.00;97230.50;10291137;28;20234;-56
2022/06/11 01:20:20;;;;;;;5.13;3.40;;;;;;;10.04;100.00;97215.34;10290608;28;20568;-54
2022/06/11 01:25:39;;;;;;;6.17;3.40;;;;;;;9.96;100.00;97213.44;10289544;28;20202;-53
2022/06/11 01:30:53;;;;;;;4.13;3.50;;;;;;;9.96;100.00;97207.38;10290472;28;20245;-54
2022/06/11 01:36:04;;;;;;;10.93;3.93;;;;;;;10.02;100.00;97211.25;10290329;28;20229;-57
2022/06/11 01:41:24;;;;;;;3.30;2.97;;;;;;;10.08;100.00;97205.44;10288965;28;20234;-57
2022/06/11 01:46:33;;;;;;;4.30;3.60;;;;;;;10.06;100.00;97216.06;10290093;28;20218;-53
2022/06/11 01:51:45;;;;;;;3.67;3.33;;;;;;;10.02;100.00;97211.25;10289996;28;20202;-53
2022/06/11 01:56:55;;;;;;;4.47;3.27;;;;;;;10.00;100.00;97214.81;10288866;28;20211;-57
2022/06/11 02:02:11;;;;;;;6.90;3.50;;;;;;;9.96;100.00;97217.84;10289816;28;20221;-53
2022/06/11 02:07:19;;;;;;;3.93;3.20;;;;;;;9.96;100.00;97208.19;10288444;28;20256;-53
2022/06/11 02:12:42;;;;;;;3.03;2.83;;;;;;;9.93;100.00;97203.25;10288272;28;20269;-54
2022/06/11 02:17:46;;;;;;;4.20;2.93;;;;;;;9.93;100.00;97210.28;10288396;28;20694;-55
2022/06/11 02:22:55;;;;;;;5.70;3.40;;;;;;;9.90;100.00;97213.19;10287479;28;20220;-58
2022/06/11 02:27:59;;;;;;;6.17;3.60;;;;;;;9.87;100.00;97232.59;10287956;28;20218;-59
2022/06/11 02:33:00;;;;;;;3.93;3.00;;;;;;;9.93;100.00;97224.19;10288145;28;20205;-56
2022/06/11 02:38:00;;;;;;;4.30;3.10;;;;;;;10.09;100.00;97207.06;10287587;28;20681;-53
2022/06/11 02:43:01;;;;;;;4.40;2.83;;;;;;;10.22;100.00;97206.78;10289118;28;20274;-53
2022/06/11 02:48:01;;;;;;;4.63;2.93;;;;;;;10.23;100.00;97224.13;10294209;28;20586;-55
2022/06/11 02:53:05;;;;;;;5.40;2.77;;;;;;;10.15;100.00;97215.22;10296706;28;20197;-53
2022/06/11 02:58:06;;;;;;;2.67;2.47;;;;;;;10.22;100.00;97222.50;10296196;28;20227;-54
2022/06/11 03:03:07;;;;;;;3.67;3.00;;;;;;;10.24;100.00;97218.75;10295890;28;20206;-55
2022/06/11 03:08:08;;;;;;;3.83;3.00;;;;;;;10.17;100.00;97221.13;10294303;28;20600;-54
2022/06/11 03:13:08;;;;;;;2.90;2.70;;;;;;;10.27;100.00;97225.50;10292996;28;20628;-53
2022/06/11 03:18:09;;;;;;;2.87;2.60;;;;;;;10.25;100.00;97217.78;10292527;28;20697;-53
2022/06/11 03:23:10;;;;;;;3.17;2.87;;;;;;;10.30;100.00;97223.41;10292275;28;20745;-55
2022/06/11 03:28:16;;;;;;;2.93;2.53;;;;;;;10.35;100.00;97228.25;10292285;28;20219;-54
2022/06/11 03:33:17;;;;;;;5.13;2.90;;;;;;;10.37;100.00;97228.13;10292650;28;20194;-53
2022/06/11 03:38:18;;;;;;;3.60;2.70;;;;;;;10.35;100.00;97231.72;10292362;28;20786;-54
2022/06/11 03:43:19;;;;;;;3.50;2.73;;;;;;;10.39;100.00;97232.25;10292483;28;20195;-54
2022/06/11 03:48:19;;;;;;;3.70;2.60;;;;;;;10.43;100.00;97238.88;10292206;28;20585;-58
2022/06/11 03:53:19;;;;;;;2.50;2.30;;;;;;;10.46;100.00;97246.44;10292231;28;20225;-55
2022/06/11 03:58:20;;;;;;;3.27;2.37;;;;;;;10.57;100.00;97237.59;10290483;28;20624;-56
2022/06/11 04:03:21;;;;;;;3.90;2.67;;;;;;;10.67;100.00;97234.91;10291867;28;20560;-56
2022/06/11 04:08:23;;;;;;;4.03;2.70;;;;;;;10.84;100.00;97246.44;10258701;28;991735;-56
2022/06/11 04:13:24;;;;;;;3.53;2.67;;;;;;;11.02;100.00;97246.50;10293500;28;20338;-56
2022/06/11 04:18:38;;;;;;;6.10;2.50;;;;;;;11.20;100.00;97244.72;10292871;28;20225;-56
2022/06/11 04:23:41;;;;;;;2.53;2.33;;;;;;;11.36;100.00;97248.50;10292983;28;20568;-56
2022/06/11 04:28:41;;;;;;;5.67;2.90;;;;;;;11.57;100.00;97238.53;10293171;28;20580;-56
2022/06/11 04:33:44;;;;;;;3.63;2.97;;;;;;;11.72;100.00;97243.28;10292796;28;20205;-59
2022/06/11 04:38:45;;;;;;;3.77;2.40;;;;;;;11.95;100.00;97244.47;10292374;28;20230;-58
2022/06/11 04:43:45;;;;;;;3.40;2.57;;;;;;;12.21;100.00;97250.75;10292544;28;20560;-55
2022/06/11 04:48:46;;;;;;;3.58;2.47;;;;;;;12.49;100.00;97246.97;10291707;28;20693;-59
2022/06/11 04:53:48;;;;;;;2.83;2.00;;;;;;;12.82;100.00;97241.09;10292324;28;20199;-55
2022/06/11 04:58:50;;;;;;;3.45;2.35;;;;;;;13.22;100.00;97246.66;10291565;28;20238;-60
2022/06/11 05:03:50;;;;;;;5.30;2.60;;;;;;;13.55;100.00;97244.94;10291653;28;20544;-56
2022/06/11 05:08:51;;;;;;;2.50;1.90;;;;;;;13.88;100.00;97242.38;10290880;28;20226;-55
2022/06/11 05:13:51;;;;;;;4.45;2.03;;;;;;;14.14;100.00;97247.47;10291046;28;20202;-54
2022/06/11 05:18:52;;;;;;;2.95;2.20;;;;;;;14.45;100.00;97242.28;10290605;28;20227;-58
2022/06/11 05:23:52;;;;;;;3.53;1.80;;;;;;;14.74;100.00;97243.59;10290930;28;20284;-56
2022/06/11 05:28:52;;;;;;;3.75;2.17;;;;;;;15.08;100.00;97242.47;10291370;28;20210;-60
2022/06/11 05:33:53;;;;;;;4.15;1.77;;;;;;;15.38;100.00;97240.00;10290650;28;20269;-60
2022/06/11 05:38:53;;;;;;;3.15;1.50;;;;;;;15.70;100.00;97241.63;10290277;28;20218;-57
2022/06/11 05:43:54;;;;;;;2.60;1.90;;;;;;;15.93;99.11;97240.03;10290337;28;20245;-58
2022/06/11 05:48:59;;;;;;;3.97;1.67;;;;;;;16.12;97.78;97241.34;10289975;28;20253;-58
2022/06/11 05:54:02;;;;;;;3.70;2.00;;;;;;;16.58;94.93;97236.78;10288945;28;20199;-60
2022/06/11 05:59:10;;;;;;;3.20;1.70;;;;;;;17.01;92.34;97233.47;10288331;28;20651;-60
2022/06/11 06:04:10;;;;;;;3.70;1.58;;;;;;;17.45;88.95;97219.34;10288304;28;20222;-60
2022/06/11 06:09:10;;;;;;;6.25;1.80;;;;;;;18.22;84.35;97187.00;10289547;28;20272;-60
2022/06/11 06:14:11;;;;;;;2.08;1.40;;;;;;;19.04;76.53;97127.84;10289234;28;20195;-59
2022/06/11 06:19:11;;;;;;;2.25;1.15;;;;;;;19.92;70.80;97080.91;10289275;28;20237;-60
2022/06/11 06:24:11;;;;;;;3.35;1.23;;;;;;;20.53;62.63;96975.13;10297176;28;20186;-59
2022/06/11 06:29:12;;;;;;;3.75;1.45;;;;;;;20.97;61.10;96986.75;10297439;28;20681;-60
2022/06/11 06:34:12;;;;;;;4.50;1.50;;;;;;;20.74;59.57;96966.81;10297568;28;20229;-62
2022/06/11 06:39:13;;;;;;;3.38;1.10;;;;;;;21.96;56.79;96944.22;10296712;28;20293;-62
2022/06/11 06:44:13;;;;;;;3.45;1.10;;;;;;;22.52;52.39;96882.75;10297121;28;20199;-59
2022/06/11 06:49:14;;;;;;;2.28;1.17;;;;;;;21.81;52.48;96879.78;10296590;28;20217;-61
2022/06/11 06:54:14;;;;;;;4.60;1.23;;;;;;;21.49;51.85;96863.91;10291673;28;20218;-61
2022/06/11 06:59:15;;;;;;;5.80;1.20;;;;;;;21.81;52.96;96903.78;10292022;28;20226;-60
2022/06/11 07:04:15;;;;;;;6.80;1.40;;;;;;;21.67;52.48;96892.44;10303422;28;20739;-56
2022/06/11 07:09:15;;;;;;;5.28;1.77;;;;;;;20.88;54.18;96926.78;10308865;28;20250;-60
2022/06/11 07:14:16;;;;;;;7.25;1.38;;;;;;;22.47;51.81;96928.81;10301016;28;20264;-60
2022/06/11 07:19:27;;;;;;;4.57;1.45;;;;;;;23.62;47.56;96848.38;10358465;23;20622;-56
2022/06/11 07:24:29;;;;;;;6.07;1.23;;;;;;;23.88;46.18;96822.16;10333962;28;20995;-57
2022/06/11 07:29:34;;;;;;;6.30;1.60;;;;;;;24.54;44.62;96809.91;10342738;28;20221;-58
2022/06/11 07:34:35;;;;;;;6.30;1.60;;;;;;;22.94;47.41;96838.09;10332097;28;20310;-55
2022/06/11 07:39:36;;;;;;;5.57;1.30;;;;;;;23.39;46.94;96850.06;10333280;28;20228;-61
2022/06/11 07:44:38;;;;;;;4.57;1.50;;;;;;;21.63;51.15;96907.28;10333615;28;20661;-60
2022/06/11 07:49:38;;;;;;;5.03;1.20;;;;;;;21.95;51.63;96947.94;10333383;28;20304;-59
2022/06/11 07:54:38;;;;;;;2.90;1.02;;;;;;;22.92;49.71;96919.50;10332581;28;20252;-57
2022/06/11 07:59:39;;;;;;;2.10;1.17;;;;;;;24.00;46.37;96871.91;10333415;28;20885;-55
2022/06/11 08:04:39;;;;;;;3.33;1.25;;;;;;;25.45;41.54;96776.66;10331093;28;20621;-58
2022/06/11 08:09:39;;;;;;;3.85;1.00;;;;;;;24.82;43.33;96813.59;10332737;28;20715;-58
2022/06/11 08:14:40;;;;;;;4.95;1.30;;;;;;;22.38;46.15;96807.38;10332198;28;20193;-58
2022/06/11 08:19:40;;;;;;;4.03;1.45;;;;;;;21.27;49.13;96871.53;10331730;28;20238;-62
2022/06/11 08:24:53;;;;;;;1.55;1.10;;;;;;;20.97;50.15;96894.34;10334505;28;20194;-58
2022/06/11 08:29:53;;;;;;;4.53;1.30;;;;;;;22.27;49.51;96926.41;10331363;28;20214;-55
2022/06/11 08:34:54;;;;;;;2.97;1.00;;;;;;;23.04;45.53;96828.69;10331225;28;20720;-58
2022/06/11 08:39:54;;;;;;;2.63;1.30;;;;;;;22.43;48.88;96912.44;10330025;28;21110;-62
2022/06/11 08:44:55;;;;;;;1.50;0.80;;;;;;;22.56;49.81;96938.13;10330000;28;20665;-60
2022/06/11 08:49:56;;;;;;;4.47;1.40;;;;;;;21.71;50.54;96936.28;10331338;28;20639;-60
2022/06/11 08:54:57;;;;;;;5.50;1.08;;;;;;;22.25;50.76;96957.81;10330288;28;20560;-60
2022/06/11 09:00:06;;;;;;;5.05;1.00;;;;;;;23.55;46.56;96885.13;10330823;28;20226;-60
2022/06/11 09:05:32;;;;;;;2.47;0.98;;;;;;;24.87;44.12;96842.31;10329887;28;20568;-58
2022/06/11 09:17:37;;;;;;;4.85;1.30;;;;;;;24.00;45.56;96871.91;10370677;28;20197;-57
2022/06/11 09:22:59;;;;;;;2.97;1.25;;;;;;;24.36;45.01;96851.16;10296564;28;20249;-57
2022/06/11 09:28:08;;;;;;;2.45;1.02;;;;;;;24.33;45.97;96882.94;10352390;28;20659;-53
2022/06/11 09:33:21;;;;;;;7.35;1.23;;;;;;;25.56;44.59;96882.22;10370917;28;20210;-56
2022/06/11 09:38:27;;;;;;;7.55;1.10;;;;;;;25.05;45.61;96908.28;10364191;28;20232;-56
2022/06/11 09:43:33;;;;;;;5.53;1.35;;;;;;;23.84;47.44;96910.94;10389881;28;20196;-53
2022/06/11 09:48:43;;;;;;;2.55;1.20;;;;;;;25.48;46.02;96933.59;10406727;28;20232;-56
2022/06/11 09:53:52;;;;;;;3.65;1.10;;;;;;;26.68;42.45;96860.34;10405915;28;20275;-56
2022/06/11 09:59:00;;;;;;;5.82;1.60;;;;;;;26.07;43.75;96886.59;10407729;28;20694;-58
2022/06/11 10:04:05;;;;;;;2.22;1.33;;;;;;;24.00;46.29;96874.56;10406920;28;20207;-58
2022/06/11 10:09:14;;;;;;;4.20;1.23;;;;;;;22.62;48.49;96886.47;10406863;28;20216;-59
2022/06/11 10:14:29;;;;;;;3.55;1.27;;;;;;;24.88;44.20;96850.13;10363779;28;20668;-59
2022/06/11 10:19:32;;;;;;;2.83;1.27;;;;;;;27.37;40.67;96839.06;10349511;28;20237;-60
2022/06/11 10:24:34;;;;;;;4.63;1.20;;;;;;;27.98;39.49;96808.06;10349105;28;20672;-59
2022/06/11 10:29:40;;;;;;;3.88;1.42;;;;;;;25.48;43.38;96837.03;10349208;28;20205;-59
2022/06/11 10:35:07;;;;;;;6.32;1.20;;;;;;;23.21;47.05;96867.03;10366539;28;20227;-59
2022/06/11 10:40:37;;;;;;;3.28;1.08;;;;;;;24.13;46.70;96910.94;10352257;28;20615;-57
2022/06/11 10:45:38;;;;;;;2.63;1.35;;;;;;;24.19;45.43;96869.03;10348806;28;20679;-58
2022/06/11 10:50:38;;;;;;;2.90;1.20;;;;;;;25.23;43.68;96857.06;10352045;28;20222;-58
2022/06/11 10:56:02;;;;;;;3.92;1.40;;;;;;;26.17;41.32;96819.56;10370813;28;20190;-58
2022/06/11 11:01:10;;;;;;;2.72;1.00;;;;;;;28.55;35.64;96728.09;10369916;28;20232;-59
2022/06/11 11:06:35;;;;;;;3.72;1.00;;;;;;;29.27;37.56;96803.50;10349677;28;20196;-60
2022/06/11 11:11:40;;;;;;;4.05;1.23;;;;;;;29.94;36.53;96789.69;10373652;28;20209;-59
2022/06/11 11:16:47;;;;;;;1.38;0.88;;;;;;;30.07;36.69;96799.88;10355327;28;20621;-59
2022/06/11 11:21:50;;;;;;;1.77;0.98;;;;;;;30.13;36.77;96816.88;10356199;28;20252;-59
2022/06/11 11:26:59;;;;;;;1.67;0.98;;;;;;;29.12;37.18;96766.53;10355011;28;20198;-59
2022/06/11 11:32:06;;;;;;;2.53;1.00;;;;;;;32.05;33.78;96798.44;10372467;28;20209;-60
2022/06/11 11:37:12;;;;;;;2.50;0.85;;;;;;;31.04;34.36;96762.31;10372452;28;20851;-60
2022/06/11 11:42:17;;;;;;;1.90;0.90;;;;;;;31.98;32.51;96737.28;10372188;28;20232;-61
2022/06/11 11:47:21;;;;;;;1.50;0.88;;;;;;;31.62;33.63;96754.06;10371808;28;20232;-59
2022/06/11 11:52:23;;;;;;;2.33;1.00;;;;;;;31.27;33.76;96737.16;10371702;28;20688;-60
2022/06/11 11:57:27;;;;;;;1.88;1.20;;;;;;;28.54;37.69;96777.69;10371480;28;20204;-60
2022/06/11 12:02:43;;;;;;;2.88;0.98;;;;;;;27.97;37.85;96739.16;10337400;28;20217;-59
2022/06/11 12:07:45;;;;;;;1.88;0.90;;;;;;;27.88;38.95;96781.91;10371305;28;20188;-59
2022/06/11 12:12:49;;;;;;;5.22;1.10;;;;;;;27.79;39.13;96802.34;10353590;28;20209;-59
2022/06/11 12:17:51;;;;;;;3.53;1.20;;;;;;;27.16;40.84;96819.28;10369148;28;20661;-59
2022/06/11 12:23:14;;;;;;;6.35;2.00;;;;;;;27.43;40.25;96823.72;10370399;28;20241;-59
2022/06/11 12:28:20;;;;;;;4.80;1.05;;;;;;;27.71;39.67;96806.38;10329587;28;20194;-58
2022/06/11 12:33:21;;;;;;;3.58;1.23;;;;;;;26.90;40.31;96800.28;10312731;28;20281;-60
2022/06/11 12:38:29;;;;;;;3.40;0.95;;;;;;;27.42;39.47;96787.97;10329599;28;20695;-60
2022/06/11 12:43:48;;;;;;;4.20;1.20;;;;;;;24.72;44.04;96829.53;10312210;28;20715;-59
2022/06/11 12:48:51;;;;;;;4.32;1.48;;;;;;;26.01;42.62;96848.16;10329269;28;20264;-58
2022/06/11 12:53:59;;;;;;;2.70;0.90;;;;;;;26.93;40.76;96823.19;10329397;28;20193;-58
2022/06/11 12:59:17;;;;;;;2.83;1.20;;;;;;;28.74;37.90;96812.72;10328887;28;20226;-58
2022/06/11 13:04:29;;;;;;;3.47;1.20;;;;;;;28.81;36.28;96734.25;10311567;28;20194;-62
2022/06/11 13:09:45;;;;;;;2.58;1.00;;;;;;;29.47;37.44;96792.59;10328618;28;20224;-60
2022/06/11 13:14:58;;;;;;;3.00;1.02;;;;;;;29.07;36.64;96759.28;10310613;28;20198;-59
2022/06/11 13:25:12;;;;;;;1.95;1.10;;;;;;;26.64;40.09;96767.84;10282663;28;20455;-65
2022/06/11 13:30:53;;;;;;;5.32;1.20;;;;;;;29.68;36.94;96808.72;10288480;28;20214;-60
2022/06/11 13:36:09;;;;;;;3.88;1.00;;;;;;;30.64;35.65;96792.16;10310152;28;20555;-64
2022/06/11 13:41:36;;;;;;;9.07;1.08;;;;;;;32.29;32.67;96757.72;10327558;28;20280;-65
2022/06/11 13:47:06;;;;;;;3.92;1.10;;;;;;;30.41;34.82;96720.72;10309820;28;20201;-66
2022/06/11 13:52:16;;;;;;;4.53;1.02;;;;;;;31.00;34.38;96739.66;10257306;28;20225;-64
2022/06/11 13:57:38;;;;;;;1.58;0.93;;;;;;;33.03;31.01;96725.22;10327148;28;20252;-65
2022/06/11 14:03:07;;;;;;;1.65;0.80;;;;;;;34.03;30.57;96718.22;10326665;28;20604;-63
2022/06/11 14:08:08;;;;;;;3.08;1.00;;;;;;;33.85;29.59;96659.41;10309227;28;20197;-63
2022/06/11 14:13:11;;;;;;;4.22;1.00;;;;;;;35.11;29.40;96720.09;10309259;28;20220;-64
2022/06/11 14:18:21;;;;;;;4.75;1.27;;;;;;;35.86;28.01;96711.94;10308679;28;20189;-64
2022/06/11 14:23:22;;;;;;;1.98;1.00;;;;;;;32.16;31.51;96640.00;10325889;28;20611;-62
2022/06/11 14:28:23;;;;;;;3.17;1.10;;;;;;;31.51;33.09;96679.44;10326600;28;20192;-63
2022/06/11 14:33:31;;;;;;;3.97;1.10;;;;;;;29.91;34.66;96671.41;10326136;28;20221;-63
2022/06/11 14:38:50;;;;;;;3.08;1.10;;;;;;;28.16;37.82;96734.03;10325831;28;20196;-63
2022/06/11 14:43:50;;;;;;;3.05;1.38;;;;;;;28.29;36.65;96709.25;10331220;28;20220;-63
2022/06/11 14:48:53;;;;;;;2.40;1.08;;;;;;;32.66;32.24;96742.47;10334143;28;20208;-64
2022/06/11 14:54:08;;;;;;;2.80;1.23;;;;;;;33.53;30.37;96701.94;10333891;28;20212;-63
2022/06/11 14:59:34;;;;;;;1.73;0.85;;;;;;;30.88;33.31;96686.72;10316062;28;20368;-63
2022/06/11 15:05:16;;;;;;;2.42;1.02;;;;;;;32.15;32.58;96719.72;10333364;28;20301;-63
2022/06/11 15:10:35;;;;;;;3.05;1.30;;;;;;;33.14;30.61;96690.53;10333185;28;20225;-63
2022/06/11 15:15:40;;;;;;;6.50;1.10;;;;;;;31.23;33.00;96679.28;10332451;28;20190;-63
2022/06/11 15:20:47;;;;;;;2.65;0.90;;;;;;;33.77;29.66;96696.28;10332567;28;20244;-64
2022/06/11 15:25:49;;;;;;;2.03;0.93;;;;;;;35.65;28.51;96723.44;10332674;28;20203;-64
2022/06/11 15:30:49;;;;;;;4.07;1.15;;;;;;;33.97;29.55;96667.81;10332410;28;20680;-64
2022/06/11 15:35:50;;;;;;;9.20;1.42;;;;;;;29.80;33.15;96600.44;10332228;28;20258;-63
2022/06/11 15:40:54;;;;;;;5.80;1.30;;;;;;;27.39;38.23;96716.63;10332042;28;20225;-62
2022/06/11 15:45:57;;;;;;;5.30;1.10;;;;;;;30.17;34.54;96710.66;10314547;28;20194;-63
2022/06/11 15:51:05;;;;;;;2.38;1.00;;;;;;;28.69;36.11;96694.13;10331419;28;20206;-63
2022/06/11 15:56:18;;;;;;;1.58;0.98;;;;;;;26.78;39.03;96708.28;10331500;28;20194;-63
2022/06/11 16:01:18;;;;;;;2.78;1.27;;;;;;;28.15;37.36;96735.09;10313872;28;20230;-63
2022/06/11 16:06:26;;;;;;;5.53;1.20;;;;;;;28.57;36.80;96737.50;10331212;28;20205;-66
2022/06/11 16:11:36;;;;;;;3.70;1.15;;;;;;;27.05;39.18;96753.88;10313354;28;20248;-66
2022/06/11 16:16:39;;;;;;;3.05;1.25;;;;;;;25.61;41.56;96766.91;10312853;28;20245;-63
2022/06/11 16:21:40;;;;;;;2.25;1.20;;;;;;;26.38;40.49;96788.34;10312689;28;20242;-63
2022/06/11 16:26:41;;;;;;;3.88;1.20;;;;;;;26.75;38.77;96754.50;10330039;28;20201;-63
2022/06/11 16:31:43;;;;;;;5.43;1.35;;;;;;;26.30;39.98;96760.06;10313044;28;20237;-63
2022/06/11 16:36:46;;;;;;;3.83;1.45;;;;;;;26.51;39.92;96768.31;10329930;28;20193;-63
2022/06/11 16:47:27;;;;;;;5.88;2.13;;;;;;;26.23;41.36;96805.13;10328958;28;20197;-63
2022/06/11 16:57:50;;;;;;;5.85;1.35;;;;;;;25.26;42.50;96802.94;10328924;28;20190;-62
2022/06/11 17:03:06;;;;;;;3.67;1.52;;;;;;;25.86;42.49;96837.22;10292157;28;20250;-62
2022/06/11 17:08:07;;;;;;;4.07;1.58;;;;;;;25.15;44.05;96856.69;10287899;28;20289;-62
2022/06/11 17:13:30;;;;;;;2.25;1.17;;;;;;;25.19;44.42;96872.03;10288212;28;20660;-62
2022/06/11 17:18:34;;;;;;;4.07;1.33;;;;;;;24.64;45.87;96897.72;10270144;28;20281;-62
2022/06/11 17:23:52;;;;;;;6.22;1.40;;;;;;;24.49;45.50;96889.38;10302502;28;20591;-62
2022/06/11 17:28:53;;;;;;;3.72;2.00;;;;;;;24.21;46.82;96921.28;10287553;28;20194;-61
2022/06/11 17:33:54;;;;;;;4.25;1.45;;;;;;;24.24;46.87;96914.63;10287433;28;20704;-62
2022/06/11 17:38:57;;;;;;;2.60;1.30;;;;;;;24.40;46.48;96915.75;10287203;28;20219;-62
2022/06/11 17:43:58;;;;;;;3.90;1.30;;;;;;;24.16;48.86;96964.00;10286909;28;20301;-61
2022/06/11 17:48:59;;;;;;;3.85;1.58;;;;;;;24.03;50.39;96993.72;10286988;28;20194;-61
2022/06/11 17:54:00;;;;;;;3.22;1.45;;;;;;;24.06;50.06;96989.75;10285854;28;21025;-61
2022/06/11 17:59:00;;;;;;;6.10;1.60;;;;;;;23.97;50.04;96983.97;10302581;28;20206;-61
2022/06/11 18:04:02;;;;;;;3.00;1.20;;;;;;;23.56;50.46;96973.16;10322960;28;20591;-61
2022/06/11 18:09:03;;;;;;;3.13;1.20;;;;;;;23.36;50.61;96989.53;10322683;28;20182;-62
2022/06/11 18:14:03;;;;;;;4.00;1.70;;;;;;;23.41;51.47;97008.38;10322063;28;20216;-62
2022/06/11 18:19:03;;;;;;;5.03;1.55;;;;;;;22.80;52.84;97016.47;10321053;28;20281;-62
2022/06/11 18:29:24;;;;;;;7.47;1.50;;;;;;;21.88;56.14;97073.38;10324083;28;20190;-64
2022/06/11 18:34:24;;;;;;;2.83;1.60;;;;;;;21.62;57.55;97098.41;10325089;28;20752;-64
2022/06/11 18:39:25;;;;;;;5.47;1.95;;;;;;;20.47;62.29;97160.41;10325211;28;20312;-63
2022/06/11 18:44:27;;;;;;;4.13;1.80;;;;;;;19.96;66.49;97185.84;10325102;28;20233;-62
2022/06/11 18:49:27;;;;;;;8.10;1.85;;;;;;;19.02;69.15;97172.38;10324782;28;20265;-63
2022/06/11 18:54:27;;;;;;;4.20;2.05;;;;;;;18.83;71.94;97173.88;10324279;28;20218;-61
2022/06/11 18:59:29;;;;;;;6.30;2.22;;;;;;;18.51;74.01;97154.13;10324606;28;20593;-63
2022/06/11 19:04:33;;;;;;;5.18;2.00;;;;;;;18.21;75.83;97169.44;10323942;28;20385;-60
2022/06/11 19:09:35;;;;;;;4.70;2.20;;;;;;;17.88;77.97;97170.00;10324629;28;20190;-60
2022/06/11 19:14:35;;;;;;;4.55;2.10;;;;;;;17.71;78.99;97182.72;10323502;28;20221;-59
2022/06/11 19:19:36;;;;;;;4.03;2.10;;;;;;;17.46;80.48;97183.91;10324413;28;20222;-61
2022/06/11 19:24:37;;;;;;;3.75;2.10;;;;;;;17.51;80.43;97185.97;10323728;28;20705;-62
2022/06/11 19:29:37;;;;;;;4.70;2.10;;;;;;;17.19;82.51;97185.44;10328562;28;20219;-58
2022/06/11 19:34:37;;;;;;;6.65;2.20;;;;;;;17.03;82.91;97183.84;10331023;28;20221;-62
2022/06/11 19:39:42;;;;;;;4.28;2.70;;;;;;;16.75;85.31;97197.72;10397780;22;20343;-57
2022/06/11 19:44:46;;;;;;;6.18;2.85;;;;;;;16.65;86.28;97199.81;10398051;28;20197;-55
2022/06/11 19:49:47;;;;;;;8.25;2.55;;;;;;;16.44;87.23;97197.91;10398044;28;20236;-59
2022/06/11 19:54:47;;;;;;;3.58;2.58;;;;;;;16.44;88.08;97200.53;10415247;28;20279;-55
2022/06/11 19:59:48;;;;;;;4.90;2.72;;;;;;;16.19;89.42;97206.09;10415164;28;20246;-55
2022/06/11 20:04:48;;;;;;;7.57;3.00;;;;;;;16.14;90.12;97204.97;10414725;28;20216;-53
2022/06/11 20:09:49;;;;;;;8.30;3.13;;;;;;;16.09;90.18;97212.63;10414956;28;20299;-53
2022/06/11 20:14:49;;;;;;;7.57;3.17;;;;;;;15.92;92.12;97219.88;10423994;28;20203;-54
2022/06/11 20:19:49;;;;;;;5.15;3.58;;;;;;;15.82;93.26;97220.13;10468523;28;20229;-54
2022/06/11 20:24:50;;;;;;;5.93;3.40;;;;;;;15.82;93.03;97220.13;10494078;28;20190;-53
2022/06/11 20:29:50;;;;;;;6.35;3.17;;;;;;;15.75;93.63;97221.78;10493616;28;20226;-54
2022/06/11 20:34:53;;;;;;;6.63;3.25;;;;;;;15.69;93.67;97218.84;10493477;28;20209;-52
2022/06/11 20:39:53;;;;;;;9.70;3.42;;;;;;;15.49;95.03;97220.31;10491929;28;20239;-54
2022/06/11 20:44:54;;;;;;;4.95;3.40;;;;;;;15.40;96.70;97226.66;10477376;28;20195;-58
2022/06/11 20:49:54;;;;;;;4.68;3.63;;;;;;;15.28;96.81;97220.94;10490882;28;20210;-57
2022/06/11 20:54:55;;;;;;;6.32;3.40;;;;;;;15.07;97.89;97217.09;10492768;28;20541;-58
2022/06/11 20:59:57;;;;;;;6.38;3.25;;;;;;;15.02;98.77;97226.50;10492441;28;20242;-58
2022/06/11 21:04:58;;;;;;;6.05;3.83;;;;;;;14.89;100.00;97225.25;10491802;28;20191;-58
2022/06/11 21:09:58;;;;;;;5.40;3.72;;;;;;;14.69;100.00;97234.56;10492199;28;20207;-56
2022/06/11 21:14:59;;;;;;;6.97;3.78;;;;;;;14.66;100.00;97229.63;10491712;28;20191;-57
2022/06/11 21:20:00;;;;;;;5.15;3.67;;;;;;;14.60;100.00;97234.56;10491883;28;20530;-56
2022/06/11 21:25:08;;;;;;;5.68;3.50;;;;;;;14.63;100.00;97230.78;10492056;28;20187;-58
2022/06/11 21:30:10;;;;;;;4.65;3.72;;;;;;;14.57;100.00;97232.22;10491723;28;20694;-57
2022/06/11 21:35:13;;;;;;;7.10;3.90;;;;;;;14.51;100.00;97232.09;10491479;28;20195;-54
2022/06/11 21:40:14;;;;;;;8.32;4.07;;;;;;;14.49;100.00;97232.25;10491425;28;20235;-52
2022/06/11 21:45:18;;;;;;;4.22;3.25;;;;;;;14.39;100.00;97239.53;10491084;28;20188;-57
2022/06/11 21:50:21;;;;;;;7.53;3.55;;;;;;;14.23;100.00;97240.38;10491266;28;20256;-54
2022/06/11 21:55:21;;;;;;;4.97;3.45;;;;;;;14.24;100.00;97240.22;10490920;28;20199;-56
2022/06/11 22:00:53;;;;;;;6.85;3.80;;;;;;;14.19;100.00;97249.59;10491054;28;20214;-53
2022/06/11 22:05:54;;;;;;;5.55;3.40;;;;;;;14.23;100.00;97241.19;10490550;28;20691;-52
2022/06/11 22:10:54;;;;;;;4.18;3.20;;;;;;;14.20;100.00;97244.16;10490882;28;20221;-56
2022/06/11 22:15:54;;;;;;;6.38;3.38;;;;;;;14.23;100.00;97250.91;10490674;28;20199;-53
2022/06/11 22:20:55;;;;;;;4.80;3.00;;;;;;;14.13;100.00;97253.72;10490425;28;20223;-58
2022/06/11 22:25:55;;;;;;;5.63;3.90;;;;;;;14.04;100.00;97254.69;10490805;28;20190;-58
2022/06/11 22:30:56;;;;;;;7.00;3.50;;;;;;;13.93;100.00;97255.03;10490406;28;20568;-58
2022/06/11 22:35:56;;;;;;;5.65;3.25;;;;;;;13.95;100.00;97256.53;10490305;28;20286;-55
2022/06/11 22:40:56;;;;;;;7.00;3.53;;;;;;;13.87;100.00;97251.25;10489919;28;20234;-56
2022/06/11 22:45:57;;;;;;;6.63;3.78;;;;;;;13.79;100.00;97253.88;10490027;28;20188;-56
2022/06/11 22:50:57;;;;;;;8.63;3.78;;;;;;;13.67;100.00;97259.44;10490159;28;20207;-52
2022/06/11 22:55:58;;;;;;;6.93;3.60;;;;;;;13.65;100.00;97252.72;10489917;28;20191;-54
2022/06/11 23:00:58;;;;;;;6.32;3.78;;;;;;;13.59;100.00;97258.63;10489820;28;20317;-58
2022/06/11 23:05:59;;;;;;;8.00;3.90;;;;;;;13.47;100.00;97250.22;10496829;28;20214;-54
2022/06/11 23:10:59;;;;;;;9.30;3.78;;;;;;;13.41;100.00;97251.66;10497509;28;20207;-54
2022/06/11 23:16:00;;;;;;;5.65;3.65;;;;;;;13.32;100.00;97247.34;10496783;28;20224;-54
2022/06/11 23:21:01;;;;;;;7.43;3.78;;;;;;;13.28;100.00;97246.03;10496772;28;20215;-54
2022/06/11 23:26:02;;;;;;;4.43;3.60;;;;;;;13.23;100.00;97241.25;10496892;28;20188;-55
2022/06/11 23:31:04;;;;;;;5.78;3.42;;;;;;;13.19;100.00;97240.72;10496664;28;20223;-53
2022/06/11 23:36:06;;;;;;;4.50;3.30;;;;;;;13.19;100.00;97248.63;10496577;28;20743;-55
2022/06/11 23:41:09;;;;;;;6.97;3.70;;;;;;;13.06;100.00;97245.59;10496120;28;20231;-52
2022/06/11 23:46:11;;;;;;;8.63;3.85;;;;;;;13.03;100.00;97244.13;10496279;28;20278;-53
2022/06/11 23:51:17;;;;;;;4.85;3.72;;;;;;;12.93;100.00;97226.84;10495888;28;20211;-52
2022/06/11 23:56:18;;;;;;;6.13;3.72;;;;;;;12.93;100.00;97232.91;10495542;28;20647;-52
